sensor_id;sensor_type;location;lat;lon;timestamp;temperature;humidity
19970;DHT22;10146;47.754;9.566;2024-01-15T00:01:15;1.50;99.90
19970;DHT22;10146;47.754;9.566;2024-01-15T00:03:41;1.50;99.90
19970;DHT22;10146;47.754;9.566;2024-01-15T00:06:06;1.40;99.90
19970;DHT22;10146;47.754;9.566;2024-01-15T00:08:32;1.40;99.90
19970;DHT22;10146;47.754;9.566;2024-01-15T00:10:57;1.40;99.90
19970;DHT22;10146;47.754;9.566;2024-01-15T00:13:23;1.40;99.90
19970;DHT22;10146;47.754;9.566;2024-01-15T00:15:49;1.40;99.90
19970;DHT22;10146;47.754;9.566;2024-01-15T00:18:14;1.40;99.90
19970;DHT22;10146;47.754;9.566;2024-01-15T00:20:40;1.50;99.90
19970;DHT22;10146;47.754;9.566;2024-01-15T00:23:05;1.40;99.90
19970;DHT22;10146;47.754;9.566;2024-01-15T00:25:31;1.30;99.90
19970;DHT22;10146;47.754;9.566;2024-01-15T00:27:57;1.30;99.90
19970;DHT22;10146;47.754;9.566;2024-01-15T00:30:22;1.30;99.90
19970;DHT22;10146;47.754;9.566;2024-01-15T00:32:48;1.30;99.90
19970;DHT22;10146;47.754;9.566;2024-01-15T00:35:13;1.30;99.90
19970;DHT22;10146;47.754;9.566;2024-01-15T00:37:39;1.30;99.90
19970;DHT22;10146;47.754;9.566;2024-01-15T00:40:05;1.30;99.90
19970;DHT22;10146;47.754;9.566;2024-01-15T00:42:33;1.30;99.90
19970;DHT22;10146;47.754;9.566;2024-01-15T00:44:59;1.20;99.90
19970;DHT22;10146;47.754;9.566;2024-01-15T00:47:25;1.20;99.90
19970;DHT22;10146;47.754;9.566;2024-01-15T00:49:50;1.30;99.90
19970;DHT22;10146;47.754;9.566;2024-01-15T00:52:16;1.30;99.90
19970;DHT22;10146;47.754;9.566;2024-01-15T00:54:41;1.30;99.90
19970;DHT22;10146;47.754;9.566;2024-01-15T00:57:07;1.30;99.90
19970;DHT22;10146;47.754;9.566;2024-01-15T00:59:33;1.20;99.90
19970;DHT22;10146;47.754;9.566;2024-01-15T01:01:58;1.20;99.90
19970;DHT22;10146;47.754;9.566;2024-01-15T01:04:24;1.30;99.90
19970;DHT22;10146;47.754;9.566;2024-01-15T01:06:49;1.40;99.90
19970;DHT22;10146;47.754;9.566;2024-01-15T01:09:15;1.50;99.90
19970;DHT22;10146;47.754;9.566;2024-01-15T01:11:41;1.60;99.90
19970;DHT22;10146;47.754;9.566;2024-01-15T01:14:06;1.60;99.90
19970;DHT22;10146;47.754;9.566;2024-01-15T01:16:32;1.60;99.90
19970;DHT22;10146;47.754;9.566;2024-01-15T01:19:06;1.70;99.90
19970;DHT22;10146;47.754;9.566;2024-01-15T01:21:33;1.70;99.90
19970;DHT22;10146;47.754;9.566;2024-01-15T01:23:59;1.80;99.90
19970;DHT22;10146;47.754;9.566;2024-01-15T01:26:25;1.70;99.90
19970;DHT22;10146;47.754;9.566;2024-01-15T01:28:50;1.70;99.90
19970;DHT22;10146;47.754;9.566;2024-01-15T01:31:16;1.70;99.90
19970;DHT22;10146;47.754;9.566;2024-01-15T01:33:42;1.80;99.90
19970;DHT22;10146;47.754;9.566;2024-01-15T01:36:08;1.70;99.90
19970;DHT22;10146;47.754;9.566;2024-01-15T01:38:35;1.70;99.90
19970;DHT22;10146;47.754;9.566;2024-01-15T01:41:00;1.70;99.90
19970;DHT22;10146;47.754;9.566;2024-01-15T01:43:26;1.80;99.90
19970;DHT22;10146;47.754;9.566;2024-01-15T01:45:52;1.80;99.90
19970;DHT22;10146;47.754;9.566;2024-01-15T01:48:20;1.80;99.90
19970;DHT22;10146;47.754;9.566;2024-01-15T01:50:46;1.80;99.90
19970;DHT22;10146;47.754;9.566;2024-01-15T01:53:11;1.80;99.90
19970;DHT22;10146;47.754;9.566;2024-01-15T01:55:38;1.80;99.90
19970;DHT22;10146;47.754;9.566;2024-01-15T01:58:04;1.80;99.90
19970;DHT22;10146;47.754;9.566;2024-01-15T02:00:31;1.70;99.90
19970;DHT22;10146;47.754;9.566;2024-01-15T02:03:00;1.80;99.90
19970;DHT22;10146;47.754;9.566;2024-01-15T02:05:29;1.70;99.90
19970;DHT22;10146;47.754;9.566;2024-01-15T02:07:55;1.70;99.90
19970;DHT22;10146;47.754;9.566;2024-01-15T02:10:21;1.70;99.90
19970;DHT22;10146;47.754;9.566;2024-01-15T02:12:46;1.70;99.90
19970;DHT22;10146;47.754;9.566;2024-01-15T02:15:14;1.60;99.90
19970;DHT22;10146;47.754;9.566;2024-01-15T02:17:59;1.60;99.90
19970;DHT22;10146;47.754;9.566;2024-01-15T02:20:25;1.60;99.90
19970;DHT22;10146;47.754;9.566;2024-01-15T02:22:51;1.50;99.90
19970;DHT22;10146;47.754;9.566;2024-01-15T02:25:17;1.50;99.90
19970;DHT22;10146;47.754;9.566;2024-01-15T02:27:44;1.40;99.90
19970;DHT22;10146;47.754;9.566;2024-01-15T02:30:11;1.40;99.90
19970;DHT22;10146;47.754;9.566;2024-01-15T02:32:40;1.40;99.90
19970;DHT22;10146;47.754;9.566;2024-01-15T02:35:06;1.30;99.90
19970;DHT22;10146;47.754;9.566;2024-01-15T02:37:31;1.30;99.90
19970;DHT22;10146;47.754;9.566;2024-01-15T02:39:57;1.20;99.90
19970;DHT22;10146;47.754;9.566;2024-01-15T02:42:22;1.10;99.90
19970;DHT22;10146;47.754;9.566;2024-01-15T02:44:48;1.10;99.90
19970;DHT22;10146;47.754;9.566;2024-01-15T02:47:14;1.00;99.90
19970;DHT22;10146;47.754;9.566;2024-01-15T02:49:42;0.80;99.90
19970;DHT22;10146;47.754;9.566;2024-01-15T02:52:08;0.70;99.90
19970;DHT22;10146;47.754;9.566;2024-01-15T02:54:34;0.60;99.90
19970;DHT22;10146;47.754;9.566;2024-01-15T02:56:59;0.60;99.90
19970;DHT22;10146;47.754;9.566;2024-01-15T02:59:25;0.50;99.90
19970;DHT22;10146;47.754;9.566;2024-01-15T03:01:50;0.40;99.90
19970;DHT22;10146;47.754;9.566;2024-01-15T03:04:16;0.40;99.90
19970;DHT22;10146;47.754;9.566;2024-01-15T03:06:41;0.20;99.90
19970;DHT22;10146;47.754;9.566;2024-01-15T03:09:07;0.10;99.90
19970;DHT22;10146;47.754;9.566;2024-01-15T03:11:39;0.00;99.90
19970;DHT22;10146;47.754;9.566;2024-01-15T03:14:05;-0.10;99.90
19970;DHT22;10146;47.754;9.566;2024-01-15T03:16:30;-0.20;99.90
19970;DHT22;10146;47.754;9.566;2024-01-15T03:18:56;-0.20;99.90
19970;DHT22;10146;47.754;9.566;2024-01-15T03:21:21;-0.20;99.90
19970;DHT22;10146;47.754;9.566;2024-01-15T03:23:47;-0.30;99.90
19970;DHT22;10146;47.754;9.566;2024-01-15T03:26:12;-0.20;99.90
19970;DHT22;10146;47.754;9.566;2024-01-15T03:28:38;-0.20;99.90
19970;DHT22;10146;47.754;9.566;2024-01-15T03:31:04;-0.20;99.90
19970;DHT22;10146;47.754;9.566;2024-01-15T03:33:38;-0.20;99.90
19970;DHT22;10146;47.754;9.566;2024-01-15T03:36:04;-0.30;99.90
19970;DHT22;10146;47.754;9.566;2024-01-15T03:38:29;-0.30;99.90
19970;DHT22;10146;47.754;9.566;2024-01-15T03:40:55;-0.30;99.90
19970;DHT22;10146;47.754;9.566;2024-01-15T03:43:20;-0.30;99.90
19970;DHT22;10146;47.754;9.566;2024-01-15T03:45:46;-0.30;99.90
19970;DHT22;10146;47.754;9.566;2024-01-15T03:48:12;-0.40;99.90
19970;DHT22;10146;47.754;9.566;2024-01-15T03:50:37;-0.40;99.90
19970;DHT22;10146;47.754;9.566;2024-01-15T03:53:03;-0.40;99.90
19970;DHT22;10146;47.754;9.566;2024-01-15T03:55:29;-0.40;99.90
19970;DHT22;10146;47.754;9.566;2024-01-15T03:57:54;-0.50;99.90
19970;DHT22;10146;47.754;9.566;2024-01-15T04:00:20;-0.50;99.90
19970;DHT22;10146;47.754;9.566;2024-01-15T04:02:46;-0.50;99.90
19970;DHT22;10146;47.754;9.566;2024-01-15T04:05:11;-0.40;99.90
19970;DHT22;10146;47.754;9.566;2024-01-15T04:07:37;-0.40;99.90
19970;DHT22;10146;47.754;9.566;2024-01-15T04:10:03;-0.40;99.90
19970;DHT22;10146;47.754;9.566;2024-01-15T04:12:28;-0.30;99.90
19970;DHT22;10146;47.754;9.566;2024-01-15T04:14:54;-0.40;99.90
19970;DHT22;10146;47.754;9.566;2024-01-15T04:17:19;-0.40;99.90
19970;DHT22;10146;47.754;9.566;2024-01-15T04:19:46;-0.30;99.90
19970;DHT22;10146;47.754;9.566;2024-01-15T04:22:13;-0.30;99.90
19970;DHT22;10146;47.754;9.566;2024-01-15T04:24:39;-0.30;99.90
19970;DHT22;10146;47.754;9.566;2024-01-15T04:27:06;-0.20;99.90
19970;DHT22;10146;47.754;9.566;2024-01-15T04:29:32;-0.20;99.90
19970;DHT22;10146;47.754;9.566;2024-01-15T04:31:57;-0.20;99.90
19970;DHT22;10146;47.754;9.566;2024-01-15T04:34:23;-0.20;99.90
19970;DHT22;10146;47.754;9.566;2024-01-15T04:36:48;-0.10;99.90
19970;DHT22;10146;47.754;9.566;2024-01-15T04:39:16;-0.20;99.90
19970;DHT22;10146;47.754;9.566;2024-01-15T04:41:42;-0.20;99.90
19970;DHT22;10146;47.754;9.566;2024-01-15T04:44:08;-0.10;99.90
19970;DHT22;10146;47.754;9.566;2024-01-15T04:46:33;-0.10;99.90
19970;DHT22;10146;47.754;9.566;2024-01-15T04:48:59;-0.10;99.90
19970;DHT22;10146;47.754;9.566;2024-01-15T04:51:25;-0.10;99.90
19970;DHT22;10146;47.754;9.566;2024-01-15T04:53:50;-0.10;99.90
19970;DHT22;10146;47.754;9.566;2024-01-15T04:56:16;-0.10;99.90
19970;DHT22;10146;47.754;9.566;2024-01-15T04:58:42;-0.10;99.90
19970;DHT22;10146;47.754;9.566;2024-01-15T05:01:08;0.00;99.90
19970;DHT22;10146;47.754;9.566;2024-01-15T05:03:34;0.00;99.90
19970;DHT22;10146;47.754;9.566;2024-01-15T05:05:59;-0.10;99.90
19970;DHT22;10146;47.754;9.566;2024-01-15T05:08:25;-0.10;99.90
19970;DHT22;10146;47.754;9.566;2024-01-15T05:10:50;-0.10;99.90
19970;DHT22;10146;47.754;9.566;2024-01-15T05:13:16;0.00;99.90
19970;DHT22;10146;47.754;9.566;2024-01-15T05:15:41;0.00;99.90
19970;DHT22;10146;47.754;9.566;2024-01-15T05:18:07;0.00;99.90
19970;DHT22;10146;47.754;9.566;2024-01-15T05:20:33;0.00;99.90
19970;DHT22;10146;47.754;9.566;2024-01-15T05:22:58;0.00;99.90
19970;DHT22;10146;47.754;9.566;2024-01-15T05:25:24;0.00;99.90
19970;DHT22;10146;47.754;9.566;2024-01-15T05:27:50;0.10;99.90
19970;DHT22;10146;47.754;9.566;2024-01-15T05:30:15;0.10;99.90
19970;DHT22;10146;47.754;9.566;2024-01-15T05:32:41;0.10;99.90
19970;DHT22;10146;47.754;9.566;2024-01-15T05:35:07;0.00;99.90
19970;DHT22;10146;47.754;9.566;2024-01-15T05:37:33;0.00;99.90
19970;DHT22;10146;47.754;9.566;2024-01-15T05:39:58;0.00;99.90
19970;DHT22;10146;47.754;9.566;2024-01-15T05:42:24;0.00;99.90
19970;DHT22;10146;47.754;9.566;2024-01-15T05:44:49;0.10;99.90
19970;DHT22;10146;47.754;9.566;2024-01-15T05:47:15;0.10;99.90
19970;DHT22;10146;47.754;9.566;2024-01-15T05:49:41;0.00;99.90
19970;DHT22;10146;47.754;9.566;2024-01-15T05:52:06;0.00;99.90
19970;DHT22;10146;47.754;9.566;2024-01-15T05:54:32;0.00;99.90
19970;DHT22;10146;47.754;9.566;2024-01-15T05:56:57;0.00;99.90
19970;DHT22;10146;47.754;9.566;2024-01-15T05:59:23;0.00;99.90
19970;DHT22;10146;47.754;9.566;2024-01-15T06:01:49;0.00;99.90
19970;DHT22;10146;47.754;9.566;2024-01-15T06:04:14;0.00;99.90
19970;DHT22;10146;47.754;9.566;2024-01-15T06:06:40;0.00;99.90
19970;DHT22;10146;47.754;9.566;2024-01-15T06:09:06;-0.10;99.90
19970;DHT22;10146;47.754;9.566;2024-01-15T06:11:31;0.00;99.90
19970;DHT22;10146;47.754;9.566;2024-01-15T06:13:57;0.10;99.90
19970;DHT22;10146;47.754;9.566;2024-01-15T06:16:23;0.10;99.90
19970;DHT22;10146;47.754;9.566;2024-01-15T06:18:49;0.10;99.90
19970;DHT22;10146;47.754;9.566;2024-01-15T06:21:16;0.00;99.90
19970;DHT22;10146;47.754;9.566;2024-01-15T06:23:43;0.00;99.90
19970;DHT22;10146;47.754;9.566;2024-01-15T06:26:11;0.00;99.90
19970;DHT22;10146;47.754;9.566;2024-01-15T06:28:37;0.00;99.90
19970;DHT22;10146;47.754;9.566;2024-01-15T06:31:03;0.00;99.90
19970;DHT22;10146;47.754;9.566;2024-01-15T06:33:28;0.00;99.90
19970;DHT22;10146;47.754;9.566;2024-01-15T06:35:54;0.00;99.90
19970;DHT22;10146;47.754;9.566;2024-01-15T06:38:20;0.00;99.90
19970;DHT22;10146;47.754;9.566;2024-01-15T06:40:45;0.10;99.90
19970;DHT22;10146;47.754;9.566;2024-01-15T06:43:13;0.10;99.90
19970;DHT22;10146;47.754;9.566;2024-01-15T06:45:40;0.10;99.90
19970;DHT22;10146;47.754;9.566;2024-01-15T06:48:06;0.00;99.90
19970;DHT22;10146;47.754;9.566;2024-01-15T06:50:33;0.00;99.90
19970;DHT22;10146;47.754;9.566;2024-01-15T06:52:58;-0.10;99.90
19970;DHT22;10146;47.754;9.566;2024-01-15T06:55:24;-0.10;99.90
19970;DHT22;10146;47.754;9.566;2024-01-15T06:57:49;-0.10;99.90
19970;DHT22;10146;47.754;9.566;2024-01-15T07:00:16;0.00;99.90
19970;DHT22;10146;47.754;9.566;2024-01-15T07:02:41;0.00;99.90
19970;DHT22;10146;47.754;9.566;2024-01-15T07:05:07;0.00;99.90
19970;DHT22;10146;47.754;9.566;2024-01-15T07:07:33;0.10;99.90
19970;DHT22;10146;47.754;9.566;2024-01-15T07:09:58;0.20;99.90
19970;DHT22;10146;47.754;9.566;2024-01-15T07:12:24;0.20;99.90
19970;DHT22;10146;47.754;9.566;2024-01-15T07:14:49;0.10;99.90
19970;DHT22;10146;47.754;9.566;2024-01-15T07:17:15;0.10;99.90
19970;DHT22;10146;47.754;9.566;2024-01-15T07:19:41;0.10;99.90
19970;DHT22;10146;47.754;9.566;2024-01-15T07:22:07;0.10;99.90
19970;DHT22;10146;47.754;9.566;2024-01-15T07:24:32;0.10;99.90
19970;DHT22;10146;47.754;9.566;2024-01-15T07:27:01;0.10;99.90
19970;DHT22;10146;47.754;9.566;2024-01-15T07:29:26;0.20;99.90
19970;DHT22;10146;47.754;9.566;2024-01-15T07:31:52;0.20;99.90
19970;DHT22;10146;47.754;9.566;2024-01-15T07:34:18;0.10;99.90
19970;DHT22;10146;47.754;9.566;2024-01-15T07:36:44;0.20;99.90
19970;DHT22;10146;47.754;9.566;2024-01-15T07:39:10;0.20;99.90
19970;DHT22;10146;47.754;9.566;2024-01-15T07:41:36;0.30;99.90
19970;DHT22;10146;47.754;9.566;2024-01-15T07:44:02;0.30;99.90
19970;DHT22;10146;47.754;9.566;2024-01-15T07:46:28;0.30;99.90
19970;DHT22;10146;47.754;9.566;2024-01-15T07:48:54;0.30;99.90
19970;DHT22;10146;47.754;9.566;2024-01-15T07:51:23;0.40;99.90
19970;DHT22;10146;47.754;9.566;2024-01-15T07:53:49;0.40;99.90
19970;DHT22;10146;47.754;9.566;2024-01-15T07:56:14;0.50;99.90
19970;DHT22;10146;47.754;9.566;2024-01-15T07:58:40;0.40;99.90
19970;DHT22;10146;47.754;9.566;2024-01-15T08:01:06;0.50;99.90
19970;DHT22;10146;47.754;9.566;2024-01-15T08:03:32;0.50;99.90
19970;DHT22;10146;47.754;9.566;2024-01-15T08:05:58;0.60;99.90
19970;DHT22;10146;47.754;9.566;2024-01-15T08:08:25;0.60;99.90
19970;DHT22;10146;47.754;9.566;2024-01-15T08:10:52;0.60;99.90
19970;DHT22;10146;47.754;9.566;2024-01-15T08:13:18;0.60;99.90
19970;DHT22;10146;47.754;9.566;2024-01-15T08:15:43;0.70;99.90
19970;DHT22;10146;47.754;9.566;2024-01-15T08:18:09;0.70;99.90
19970;DHT22;10146;47.754;9.566;2024-01-15T08:20:35;0.70;99.90
19970;DHT22;10146;47.754;9.566;2024-01-15T08:23:01;0.70;99.90
19970;DHT22;10146;47.754;9.566;2024-01-15T08:25:26;0.70;99.90
19970;DHT22;10146;47.754;9.566;2024-01-15T08:27:52;0.70;99.90
19970;DHT22;10146;47.754;9.566;2024-01-15T08:30:18;0.80;99.90
19970;DHT22;10146;47.754;9.566;2024-01-15T08:32:44;0.80;99.90
19970;DHT22;10146;47.754;9.566;2024-01-15T08:35:10;0.80;99.90
19970;DHT22;10146;47.754;9.566;2024-01-15T08:40:03;0.80;99.90
19970;DHT22;10146;47.754;9.566;2024-01-15T08:42:29;0.80;99.90
19970;DHT22;10146;47.754;9.566;2024-01-15T08:44:54;0.90;99.90
19970;DHT22;10146;47.754;9.566;2024-01-15T08:47:20;0.90;99.90
19970;DHT22;10146;47.754;9.566;2024-01-15T08:49:46;0.90;99.90
19970;DHT22;10146;47.754;9.566;2024-01-15T08:52:12;0.90;99.90
19970;DHT22;10146;47.754;9.566;2024-01-15T08:54:39;0.90;99.90
19970;DHT22;10146;47.754;9.566;2024-01-15T08:57:04;0.90;99.90
19970;DHT22;10146;47.754;9.566;2024-01-15T08:59:30;0.90;99.90
19970;DHT22;10146;47.754;9.566;2024-01-15T09:01:56;0.90;99.90
19970;DHT22;10146;47.754;9.566;2024-01-15T09:04:25;1.00;99.90
19970;DHT22;10146;47.754;9.566;2024-01-15T09:06:50;0.90;99.90
19970;DHT22;10146;47.754;9.566;2024-01-15T09:09:16;1.00;99.90
19970;DHT22;10146;47.754;9.566;2024-01-15T09:11:41;1.00;99.90
19970;DHT22;10146;47.754;9.566;2024-01-15T09:14:07;1.00;99.90
19970;DHT22;10146;47.754;9.566;2024-01-15T09:16:33;1.00;99.90
19970;DHT22;10146;47.754;9.566;2024-01-15T09:19:02;1.10;99.90
19970;DHT22;10146;47.754;9.566;2024-01-15T09:21:28;1.10;99.90
19970;DHT22;10146;47.754;9.566;2024-01-15T09:23:54;1.10;99.90
19970;DHT22;10146;47.754;9.566;2024-01-15T09:26:19;1.10;99.90
19970;DHT22;10146;47.754;9.566;2024-01-15T09:28:45;1.10;99.90
19970;DHT22;10146;47.754;9.566;2024-01-15T09:31:10;1.20;99.90
19970;DHT22;10146;47.754;9.566;2024-01-15T09:33:37;1.20;99.90
19970;DHT22;10146;47.754;9.566;2024-01-15T09:36:03;1.20;99.90
19970;DHT22;10146;47.754;9.566;2024-01-15T09:38:29;1.20;99.90
19970;DHT22;10146;47.754;9.566;2024-01-15T09:40:55;1.20;99.90
19970;DHT22;10146;47.754;9.566;2024-01-15T09:43:21;1.20;99.90
19970;DHT22;10146;47.754;9.566;2024-01-15T09:45:49;1.10;99.90
19970;DHT22;10146;47.754;9.566;2024-01-15T09:48:15;1.10;99.90
19970;DHT22;10146;47.754;9.566;2024-01-15T09:50:40;1.20;99.90
19970;DHT22;10146;47.754;9.566;2024-01-15T09:53:06;1.20;99.90
19970;DHT22;10146;47.754;9.566;2024-01-15T09:55:32;1.10;99.90
19970;DHT22;10146;47.754;9.566;2024-01-15T09:58:01;1.30;99.90
19970;DHT22;10146;47.754;9.566;2024-01-15T10:00:28;1.30;99.90
19970;DHT22;10146;47.754;9.566;2024-01-15T10:02:55;1.40;99.90
19970;DHT22;10146;47.754;9.566;2024-01-15T10:05:21;1.40;99.90
19970;DHT22;10146;47.754;9.566;2024-01-15T10:07:47;1.40;99.90
19970;DHT22;10146;47.754;9.566;2024-01-15T10:10:15;1.40;99.90
19970;DHT22;10146;47.754;9.566;2024-01-15T10:12:41;1.40;99.90
19970;DHT22;10146;47.754;9.566;2024-01-15T10:15:10;1.40;99.90
19970;DHT22;10146;47.754;9.566;2024-01-15T10:17:40;1.50;99.90
19970;DHT22;10146;47.754;9.566;2024-01-15T10:20:10;1.50;99.90
19970;DHT22;10146;47.754;9.566;2024-01-15T10:22:40;1.40;99.90
19970;DHT22;10146;47.754;9.566;2024-01-15T10:25:06;1.40;99.90
19970;DHT22;10146;47.754;9.566;2024-01-15T10:27:31;1.40;99.90
19970;DHT22;10146;47.754;9.566;2024-01-15T10:30:00;1.40;99.90
19970;DHT22;10146;47.754;9.566;2024-01-15T10:32:27;1.50;99.90
19970;DHT22;10146;47.754;9.566;2024-01-15T10:34:53;1.50;99.90
19970;DHT22;10146;47.754;9.566;2024-01-15T10:37:19;1.50;99.90
19970;DHT22;10146;47.754;9.566;2024-01-15T10:39:46;1.50;99.90
19970;DHT22;10146;47.754;9.566;2024-01-15T10:42:12;1.60;99.90
19970;DHT22;10146;47.754;9.566;2024-01-15T10:44:38;1.60;99.90
19970;DHT22;10146;47.754;9.566;2024-01-15T10:47:04;1.50;99.90
19970;DHT22;10146;47.754;9.566;2024-01-15T10:49:29;1.50;99.90
19970;DHT22;10146;47.754;9.566;2024-01-15T10:51:56;1.50;99.90
19970;DHT22;10146;47.754;9.566;2024-01-15T10:54:23;1.60;99.90
19970;DHT22;10146;47.754;9.566;2024-01-15T10:56:50;1.70;99.90
19970;DHT22;10146;47.754;9.566;2024-01-15T10:59:16;1.70;99.90
19970;DHT22;10146;47.754;9.566;2024-01-15T11:01:44;1.70;99.90
19970;DHT22;10146;47.754;9.566;2024-01-15T11:04:10;1.80;99.90
19970;DHT22;10146;47.754;9.566;2024-01-15T11:06:44;1.80;99.90
19970;DHT22;10146;47.754;9.566;2024-01-15T11:09:10;1.80;99.90
19970;DHT22;10146;47.754;9.566;2024-01-15T11:11:40;1.70;99.90
19970;DHT22;10146;47.754;9.566;2024-01-15T11:14:06;1.70;99.90
19970;DHT22;10146;47.754;9.566;2024-01-15T11:16:53;1.60;99.90
19970;DHT22;10146;47.754;9.566;2024-01-15T11:19:21;1.60;99.90
19970;DHT22;10146;47.754;9.566;2024-01-15T11:21:47;1.50;99.90
19970;DHT22;10146;47.754;9.566;2024-01-15T11:24:33;1.50;99.90
19970;DHT22;10146;47.754;9.566;2024-01-15T11:26:59;1.50;99.90
19970;DHT22;10146;47.754;9.566;2024-01-15T11:32:08;1.40;99.90
19970;DHT22;10146;47.754;9.566;2024-01-15T11:34:57;1.40;99.90
19970;DHT22;10146;47.754;9.566;2024-01-15T11:37:25;1.40;99.90
19970;DHT22;10146;47.754;9.566;2024-01-15T11:39:55;1.30;99.90
19970;DHT22;10146;47.754;9.566;2024-01-15T11:42:22;1.30;99.90
19970;DHT22;10146;47.754;9.566;2024-01-15T11:44:48;1.30;99.90
19970;DHT22;10146;47.754;9.566;2024-01-15T11:47:14;1.40;99.90
19970;DHT22;10146;47.754;9.566;2024-01-15T11:49:59;1.60;99.90
19970;DHT22;10146;47.754;9.566;2024-01-15T11:52:26;1.80;99.90
19970;DHT22;10146;47.754;9.566;2024-01-15T11:55:22;1.80;99.90
19970;DHT22;10146;47.754;9.566;2024-01-15T11:57:53;1.70;99.90
19970;DHT22;10146;47.754;9.566;2024-01-15T12:00:23;1.60;99.90
19970;DHT22;10146;47.754;9.566;2024-01-15T12:02:49;1.60;99.90
19970;DHT22;10146;47.754;9.566;2024-01-15T12:05:17;1.60;99.90
19970;DHT22;10146;47.754;9.566;2024-01-15T12:07:45;1.60;99.90
19970;DHT22;10146;47.754;9.566;2024-01-15T12:10:11;1.50;99.90
19970;DHT22;10146;47.754;9.566;2024-01-15T12:12:59;1.50;99.90
19970;DHT22;10146;47.754;9.566;2024-01-15T12:15:29;1.60;99.90
19970;DHT22;10146;47.754;9.566;2024-01-15T12:17:59;1.80;99.90
19970;DHT22;10146;47.754;9.566;2024-01-15T12:20:26;1.90;99.90
19970;DHT22;10146;47.754;9.566;2024-01-15T12:22:53;2.00;99.90
19970;DHT22;10146;47.754;9.566;2024-01-15T12:25:19;2.10;99.90
19970;DHT22;10146;47.754;9.566;2024-01-15T12:27:45;2.30;99.90
19970;DHT22;10146;47.754;9.566;2024-01-15T12:30:12;2.40;99.90
19970;DHT22;10146;47.754;9.566;2024-01-15T12:32:39;2.40;99.90
19970;DHT22;10146;47.754;9.566;2024-01-15T12:35:05;2.50;99.90
19970;DHT22;10146;47.754;9.566;2024-01-15T12:37:31;2.50;99.90
19970;DHT22;10146;47.754;9.566;2024-01-15T12:39:58;2.40;99.90
19970;DHT22;10146;47.754;9.566;2024-01-15T12:42:25;2.40;99.90
19970;DHT22;10146;47.754;9.566;2024-01-15T12:44:50;2.30;99.90
19970;DHT22;10146;47.754;9.566;2024-01-15T12:47:16;2.30;99.90
19970;DHT22;10146;47.754;9.566;2024-01-15T12:49:47;2.30;99.90
19970;DHT22;10146;47.754;9.566;2024-01-15T12:52:15;2.30;99.90
19970;DHT22;10146;47.754;9.566;2024-01-15T12:54:40;2.40;99.90
19970;DHT22;10146;47.754;9.566;2024-01-15T12:57:06;2.50;99.90
19970;DHT22;10146;47.754;9.566;2024-01-15T12:59:32;2.60;99.90
19970;DHT22;10146;47.754;9.566;2024-01-15T13:01:57;2.70;99.90
19970;DHT22;10146;47.754;9.566;2024-01-15T13:04:24;2.70;99.90
19970;DHT22;10146;47.754;9.566;2024-01-15T13:06:52;2.80;99.90
19970;DHT22;10146;47.754;9.566;2024-01-15T13:09:18;2.80;99.90
19970;DHT22;10146;47.754;9.566;2024-01-15T13:11:47;2.80;99.90
19970;DHT22;10146;47.754;9.566;2024-01-15T13:14:13;2.90;99.90
19970;DHT22;10146;47.754;9.566;2024-01-15T13:16:42;2.90;99.90
19970;DHT22;10146;47.754;9.566;2024-01-15T13:19:10;2.90;99.90
19970;DHT22;10146;47.754;9.566;2024-01-15T13:21:37;2.80;99.90
19970;DHT22;10146;47.754;9.566;2024-01-15T13:24:03;2.70;99.90
19970;DHT22;10146;47.754;9.566;2024-01-15T13:26:34;2.60;99.90
19970;DHT22;10146;47.754;9.566;2024-01-15T13:29:00;2.60;99.90
19970;DHT22;10146;47.754;9.566;2024-01-15T13:31:27;2.70;99.90
19970;DHT22;10146;47.754;9.566;2024-01-15T13:33:56;2.80;99.90
19970;DHT22;10146;47.754;9.566;2024-01-15T13:36:22;2.90;99.90
19970;DHT22;10146;47.754;9.566;2024-01-15T13:38:49;2.90;99.90
19970;DHT22;10146;47.754;9.566;2024-01-15T13:41:15;2.90;99.90
19970;DHT22;10146;47.754;9.566;2024-01-15T13:43:41;3.00;99.90
19970;DHT22;10146;47.754;9.566;2024-01-15T13:46:06;3.10;99.90
19970;DHT22;10146;47.754;9.566;2024-01-15T13:48:32;3.10;99.90
19970;DHT22;10146;47.754;9.566;2024-01-15T13:50:58;3.00;99.90
19970;DHT22;10146;47.754;9.566;2024-01-15T13:53:25;3.00;99.90
19970;DHT22;10146;47.754;9.566;2024-01-15T13:55:51;3.00;99.90
19970;DHT22;10146;47.754;9.566;2024-01-15T13:58:17;2.90;99.90
19970;DHT22;10146;47.754;9.566;2024-01-15T14:00:44;3.00;99.90
19970;DHT22;10146;47.754;9.566;2024-01-15T14:03:09;3.00;99.90
19970;DHT22;10146;47.754;9.566;2024-01-15T14:05:35;3.00;99.90
19970;DHT22;10146;47.754;9.566;2024-01-15T14:08:00;3.00;99.90
19970;DHT22;10146;47.754;9.566;2024-01-15T14:10:26;3.00;99.90
19970;DHT22;10146;47.754;9.566;2024-01-15T14:12:52;2.90;99.90
19970;DHT22;10146;47.754;9.566;2024-01-15T14:15:17;3.00;99.90
19970;DHT22;10146;47.754;9.566;2024-01-15T14:17:46;2.90;99.90
19970;DHT22;10146;47.754;9.566;2024-01-15T14:20:12;2.90;99.90
19970;DHT22;10146;47.754;9.566;2024-01-15T14:22:38;2.90;99.90
19970;DHT22;10146;47.754;9.566;2024-01-15T14:25:04;2.80;99.90
19970;DHT22;10146;47.754;9.566;2024-01-15T14:27:30;2.90;99.90
19970;DHT22;10146;47.754;9.566;2024-01-15T14:29:55;2.80;99.90
19970;DHT22;10146;47.754;9.566;2024-01-15T14:32:21;2.80;99.90
19970;DHT22;10146;47.754;9.566;2024-01-15T14:34:46;2.70;99.90
19970;DHT22;10146;47.754;9.566;2024-01-15T14:37:13;2.70;99.90
19970;DHT22;10146;47.754;9.566;2024-01-15T14:39:38;2.70;99.90
19970;DHT22;10146;47.754;9.566;2024-01-15T14:42:04;2.70;99.90
19970;DHT22;10146;47.754;9.566;2024-01-15T14:44:30;2.70;99.90
19970;DHT22;10146;47.754;9.566;2024-01-15T14:46:55;2.70;99.90
19970;DHT22;10146;47.754;9.566;2024-01-15T14:49:23;2.70;99.90
19970;DHT22;10146;47.754;9.566;2024-01-15T14:51:55;2.70;99.90
19970;DHT22;10146;47.754;9.566;2024-01-15T14:54:20;2.60;99.90
19970;DHT22;10146;47.754;9.566;2024-01-15T14:56:46;2.60;99.90
19970;DHT22;10146;47.754;9.566;2024-01-15T14:59:12;2.60;99.90
19970;DHT22;10146;47.754;9.566;2024-01-15T15:01:37;2.50;99.90
19970;DHT22;10146;47.754;9.566;2024-01-15T15:04:03;2.50;99.90
19970;DHT22;10146;47.754;9.566;2024-01-15T15:06:29;2.50;99.90
19970;DHT22;10146;47.754;9.566;2024-01-15T15:08:54;2.60;99.90
19970;DHT22;10146;47.754;9.566;2024-01-15T15:11:21;2.60;99.90
19970;DHT22;10146;47.754;9.566;2024-01-15T15:13:48;2.50;99.90
19970;DHT22;10146;47.754;9.566;2024-01-15T15:16:15;2.50;99.90
19970;DHT22;10146;47.754;9.566;2024-01-15T15:18:41;2.50;99.90
19970;DHT22;10146;47.754;9.566;2024-01-15T15:21:12;2.50;99.90
19970;DHT22;10146;47.754;9.566;2024-01-15T15:23:40;2.50;99.90
19970;DHT22;10146;47.754;9.566;2024-01-15T15:26:06;2.50;99.90
19970;DHT22;10146;47.754;9.566;2024-01-15T15:28:31;2.50;99.90
19970;DHT22;10146;47.754;9.566;2024-01-15T15:30:57;2.50;99.90
19970;DHT22;10146;47.754;9.566;2024-01-15T15:33:23;2.50;99.90
19970;DHT22;10146;47.754;9.566;2024-01-15T15:35:48;2.50;99.90
19970;DHT22;10146;47.754;9.566;2024-01-15T15:38:17;2.50;99.90
19970;DHT22;10146;47.754;9.566;2024-01-15T15:40:42;2.50;99.90
19970;DHT22;10146;47.754;9.566;2024-01-15T15:43:08;2.50;99.90
19970;DHT22;10146;47.754;9.566;2024-01-15T15:45:34;2.50;99.90